Time;durP1;ratioP1;P1;durP2;ratioP2;P2;SDS_P1;SDS_P2;PMS_P1;PMS_P2;Temp;Humidity;BMP_temperature;BMP_pressure;BME280_temperature;BME280_humidity;BME280_pressure;Samples;Min_cycle;Max_cycle;Signal;HPM_P1;HPM_P2
2022/08/14 00:00:18;;;;;;;1999.90;999.90;;;;;;;15.56;100.00;97626.25;4983704;28;20022;-78
2022/08/14 00:02:44;;;;;;;1999.90;999.90;;;;;;;15.37;100.00;97610.16;4983925;28;20023;-77
2022/08/14 00:05:13;;;;;;;1999.90;999.90;;;;;;;15.33;100.00;97611.13;4984240;28;20093;-77
2022/08/14 00:07:39;;;;;;;1999.90;999.90;;;;;;;15.23;100.00;97615.09;4981911;28;20094;-77
2022/08/14 00:10:08;;;;;;;1999.90;999.90;;;;;;;15.13;100.00;97614.69;4980342;28;20109;-77
2022/08/14 00:12:37;;;;;;;1999.90;999.90;;;;;;;15.03;100.00;97604.84;4983772;28;20069;-76
2022/08/14 00:15:07;;;;;;;1999.90;999.90;;;;;;;14.97;100.00;97604.22;4985014;28;20531;-76
2022/08/14 00:17:32;;;;;;;1999.90;999.90;;;;;;;14.91;100.00;97597.28;4987804;28;20534;-77
2022/08/14 00:19:57;;;;;;;1999.90;999.90;;;;;;;14.91;100.00;97591.78;4986675;28;20023;-77
2022/08/14 00:22:23;;;;;;;1999.90;999.90;;;;;;;15.09;100.00;97599.97;4986898;28;20024;-77
2022/08/14 00:24:48;;;;;;;1999.90;999.90;;;;;;;15.16;100.00;97603.00;4986080;28;20031;-76
2022/08/14 00:27:13;;;;;;;1999.90;999.90;;;;;;;15.17;100.00;97604.59;4988388;28;20030;-78
2022/08/14 00:29:39;;;;;;;1999.90;999.90;;;;;;;15.12;100.00;97589.06;4987628;28;20011;-78
2022/08/14 00:32:05;;;;;;;1999.90;999.90;;;;;;;14.89;100.00;97569.28;4989146;28;20057;-78
2022/08/14 00:34:30;;;;;;;1999.90;999.90;;;;;;;15.03;100.00;97605.63;4987390;28;20101;-76
2022/08/14 00:36:55;;;;;;;1999.90;999.90;;;;;;;14.99;100.00;97606.66;4988040;28;20030;-78
2022/08/14 00:39:22;;;;;;;1999.90;999.90;;;;;;;14.94;100.00;97595.84;4983795;28;20038;-76
2022/08/14 00:41:48;;;;;;;1999.90;999.90;;;;;;;14.92;100.00;97606.34;4981837;28;20077;-78
2022/08/14 00:44:14;;;;;;;1999.90;999.90;;;;;;;15.05;100.00;97596.25;4981799;28;20066;-79
2022/08/14 00:46:40;;;;;;;1999.90;999.90;;;;;;;14.83;100.00;97595.41;4981505;28;20030;-79
2022/08/14 00:49:07;;;;;;;1999.90;999.90;;;;;;;14.87;100.00;97598.28;4989145;28;20257;-78
2022/08/14 00:51:33;;;;;;;1999.90;999.90;;;;;;;14.93;100.00;97595.03;5003948;28;20054;-78
2022/08/14 00:53:59;;;;;;;1999.90;999.90;;;;;;;14.99;100.00;97588.19;5003448;28;20037;-77
2022/08/14 00:56:26;;;;;;;1999.90;999.90;;;;;;;14.95;100.00;97587.22;5003565;28;20030;-77
2022/08/14 00:58:53;;;;;;;1999.90;999.90;;;;;;;14.89;100.00;97585.81;5003803;28;20109;-77
2022/08/14 01:01:18;;;;;;;1999.90;999.90;;;;;;;14.75;100.00;97576.97;5002149;28;20034;-79
2022/08/14 01:03:45;;;;;;;1999.90;999.90;;;;;;;14.72;100.00;97594.13;4999862;28;20557;-78
2022/08/14 01:06:15;;;;;;;1999.90;999.90;;;;;;;14.75;100.00;97596.25;4999852;28;20022;-78
2022/08/14 01:08:42;;;;;;;1999.90;999.90;;;;;;;14.85;100.00;97582.09;5000814;28;20026;-79
2022/08/14 01:11:14;;;;;;;1999.90;999.90;;;;;;;14.71;100.00;97570.50;5000332;28;20030;-78
2022/08/14 01:13:40;;;;;;;1999.90;999.90;;;;;;;14.82;100.00;97580.00;5000556;28;20034;-78
2022/08/14 01:16:09;;;;;;;1999.90;999.90;;;;;;;14.89;100.00;97585.00;5002314;28;20038;-78
2022/08/14 01:21:33;;;;;;;1999.90;999.90;;;;;;;14.93;100.00;97581.25;5000397;28;20124;-77
2022/08/14 01:23:59;;;;;;;1999.90;999.90;;;;;;;14.92;100.00;97587.88;4997704;28;20121;-78
2022/08/14 01:26:27;;;;;;;1999.90;999.90;;;;;;;14.98;100.00;97581.03;4995578;28;20109;-78
2022/08/14 01:28:56;;;;;;;1999.90;999.90;;;;;;;14.97;100.00;97586.91;4996928;28;20209;-78
2022/08/14 01:31:24;;;;;;;1999.90;999.90;;;;;;;14.95;100.00;97578.16;4997611;28;20034;-78
2022/08/14 01:33:54;;;;;;;1999.90;999.90;;;;;;;14.90;100.00;97573.66;4997576;28;20034;-78
2022/08/14 01:36:19;;;;;;;1999.90;999.90;;;;;;;14.82;100.00;97565.41;4997584;28;20495;-78
2022/08/14 01:38:50;;;;;;;1999.90;999.90;;;;;;;14.86;100.00;97578.22;4996657;28;20049;-78
2022/08/14 01:41:19;;;;;;;1999.90;999.90;;;;;;;14.75;100.00;97570.66;4996621;28;20034;-79
2022/08/14 01:43:50;;;;;;;1999.90;999.90;;;;;;;14.59;100.00;97564.91;4995502;28;20037;-78
2022/08/14 01:46:17;;;;;;;1999.90;999.90;;;;;;;14.60;100.00;97574.75;4996640;28;20030;-78
2022/08/14 01:48:44;;;;;;;1999.90;999.90;;;;;;;14.57;100.00;97569.91;4997108;28;20018;-78
2022/08/14 01:51:11;;;;;;;1999.90;999.90;;;;;;;14.56;100.00;97567.50;4997099;28;20470;-78
2022/08/14 01:53:43;;;;;;;1999.90;999.90;;;;;;;14.49;100.00;97562.50;4997575;28;20060;-78
2022/08/14 01:56:09;;;;;;;1999.90;999.90;;;;;;;14.33;100.00;97559.50;4997039;28;20023;-78
2022/08/14 01:58:35;;;;;;;1999.90;999.90;;;;;;;14.32;100.00;97562.53;4997160;28;20029;-78
2022/08/14 02:01:03;;;;;;;1999.90;999.90;;;;;;;14.28;100.00;97556.88;4995847;28;20022;-78
2022/08/14 02:03:34;;;;;;;1999.90;999.90;;;;;;;14.22;100.00;97543.66;4997482;28;20054;-78
2022/08/14 02:06:01;;;;;;;1999.90;999.90;;;;;;;14.24;100.00;97557.88;4997321;28;20018;-78
2022/08/14 02:08:29;;;;;;;1999.90;999.90;;;;;;;14.26;100.00;97556.41;4997272;28;20483;-78
2022/08/14 02:13:42;;;;;;;1999.90;999.90;;;;;;;14.23;100.00;97551.56;4997129;28;20045;-78
2022/08/14 02:16:11;;;;;;;1999.90;999.90;;;;;;;14.36;100.00;97550.59;4998067;28;20033;-78
2022/08/14 02:18:38;;;;;;;1999.90;999.90;;;;;;;14.47;100.00;97551.03;4997722;28;20368;-78
2022/08/14 02:21:05;;;;;;;1999.90;999.90;;;;;;;14.56;100.00;97549.06;4996434;28;20026;-77
2022/08/14 02:23:31;;;;;;;1999.90;999.90;;;;;;;14.50;100.00;97547.63;4996991;28;20034;-77
2022/08/14 02:25:58;;;;;;;1999.90;999.90;;;;;;;14.43;100.00;97541.81;4998017;28;20022;-78
2022/08/14 02:28:25;;;;;;;1999.90;999.90;;;;;;;14.66;100.00;97551.41;4996379;28;20034;-77
2022/08/14 02:30:51;;;;;;;1999.90;999.90;;;;;;;14.69;100.00;97552.72;4998009;28;20023;-78
2022/08/14 02:33:17;;;;;;;1999.90;999.90;;;;;;;14.55;100.00;97543.88;4997454;28;20399;-79
2022/08/14 02:35:43;;;;;;;1999.90;999.90;;;;;;;14.47;100.00;97542.78;4995611;28;20442;-78
2022/08/14 02:38:09;;;;;;;1999.90;999.90;;;;;;;14.38;100.00;97548.31;4996518;28;20116;-78
2022/08/14 02:40:36;;;;;;;1999.90;999.90;;;;;;;14.30;100.00;97538.13;4997596;28;20157;-78
2022/08/14 02:43:03;;;;;;;1999.90;999.90;;;;;;;14.36;100.00;97544.28;4998123;28;20030;-78
2022/08/14 02:45:33;;;;;;;1999.90;999.90;;;;;;;14.31;100.00;97544.44;4997577;28;20045;-77
2022/08/14 02:48:02;;;;;;;1999.90;999.90;;;;;;;14.23;100.00;97537.00;4999451;28;20073;-78
2022/08/14 02:50:28;;;;;;;1999.90;999.90;;;;;;;14.18;100.00;97537.19;4998375;28;20037;-78
2022/08/14 02:52:54;;;;;;;1999.90;999.90;;;;;;;14.18;100.00;97534.44;4998027;28;20022;-77
2022/08/14 02:55:20;;;;;;;1999.90;999.90;;;;;;;14.14;100.00;97542.53;4998340;28;20467;-77
2022/08/14 02:57:50;;;;;;;1999.90;999.90;;;;;;;14.18;100.00;97529.75;5000086;28;20868;-77
2022/08/14 03:00:16;;;;;;;1999.90;999.90;;;;;;;14.13;100.00;97523.59;5000125;28;20030;-76
2022/08/14 03:02:42;;;;;;;1999.90;999.90;;;;;;;14.28;100.00;97523.88;4999127;28;20483;-77
2022/08/14 03:05:07;;;;;;;1999.90;999.90;;;;;;;14.42;100.00;97535.50;4999181;28;20113;-78
2022/08/14 03:07:33;;;;;;;1999.90;999.90;;;;;;;14.28;100.00;97534.09;4997999;28;20510;-77
2022/08/14 03:09:59;;;;;;;1999.90;999.90;;;;;;;14.36;100.00;97525.81;4999299;28;20057;-78
2022/08/14 03:12:25;;;;;;;1999.90;999.90;;;;;;;14.44;100.00;97526.91;4998721;28;20086;-78
2022/08/14 03:14:51;;;;;;;1999.90;999.90;;;;;;;14.28;100.00;97523.09;4999141;28;20030;-78
2022/08/14 03:17:16;;;;;;;1999.90;999.90;;;;;;;14.22;100.00;97524.41;4999720;28;20033;-78
2022/08/14 03:19:42;;;;;;;1999.90;999.90;;;;;;;14.16;100.00;97526.50;5000123;28;20038;-78
2022/08/14 03:22:08;;;;;;;1999.90;999.90;;;;;;;14.09;100.00;97515.22;5004914;28;20038;-77
2022/08/14 03:24:35;;;;;;;1999.90;999.90;;;;;;;14.00;100.00;97519.94;4998686;28;20034;-78
2022/08/14 03:27:01;;;;;;;1999.90;999.90;;;;;;;13.92;100.00;97521.56;4994036;28;20061;-78
2022/08/14 03:29:27;;;;;;;1999.90;999.90;;;;;;;13.99;100.00;97525.75;4994450;28;20030;-78
2022/08/14 03:31:58;;;;;;;1999.90;999.90;;;;;;;14.01;100.00;97520.72;4996202;28;20046;-78
2022/08/14 03:34:24;;;;;;;1999.90;999.90;;;;;;;14.14;100.00;97520.53;4999625;28;20033;-77
2022/08/14 03:36:54;;;;;;;1999.90;999.90;;;;;;;14.28;100.00;97529.38;4999627;28;20117;-77
2022/08/14 03:39:21;;;;;;;1999.90;999.90;;;;;;;14.24;100.00;97533.94;4999331;28;20037;-77
2022/08/14 03:41:46;;;;;;;1999.90;999.90;;;;;;;14.11;100.00;97509.38;4995455;28;20023;-78
2022/08/14 03:44:12;;;;;;;1999.90;999.90;;;;;;;14.18;100.00;97528.94;4994589;28;20038;-78
2022/08/14 03:46:38;;;;;;;1999.90;999.90;;;;;;;14.12;100.00;97516.50;4995115;28;20056;-78
2022/08/14 03:49:05;;;;;;;1999.90;999.90;;;;;;;14.14;100.00;97512.28;4995143;28;20077;-78
2022/08/14 03:51:32;;;;;;;1999.90;999.90;;;;;;;14.17;100.00;97527.31;4978292;28;20180;-78
2022/08/14 03:54:02;;;;;;;1999.90;999.90;;;;;;;14.11;100.00;97520.38;4976014;28;20030;-78
2022/08/14 03:56:28;;;;;;;1999.90;999.90;;;;;;;14.10;100.00;97521.50;4976388;28;20069;-78
2022/08/14 03:58:56;;;;;;;1999.90;999.90;;;;;;;14.13;100.00;97521.66;4976067;28;20041;-77
2022/08/14 04:01:23;;;;;;;1999.90;999.90;;;;;;;14.18;100.00;97523.44;4975792;28;20046;-78
2022/08/14 04:03:51;;;;;;;1999.90;999.90;;;;;;;14.10;100.00;97516.00;4973789;28;20067;-78
2022/08/14 04:06:20;;;;;;;1999.90;999.90;;;;;;;14.06;100.00;97526.06;4976470;28;20113;-77
2022/08/14 04:08:48;;;;;;;1999.90;999.90;;;;;;;14.13;100.00;97523.59;4976085;28;20011;-78
2022/08/14 04:11:15;;;;;;;1999.90;999.90;;;;;;;14.23;100.00;97523.25;4975420;28;20035;-78
2022/08/14 04:13:42;;;;;;;1999.90;999.90;;;;;;;14.22;100.00;97527.16;4975437;28;20033;-78
2022/08/14 04:16:13;;;;;;;1999.90;999.90;;;;;;;14.30;100.00;97524.34;4975927;28;20011;-78
2022/08/14 04:18:44;;;;;;;1999.90;999.90;;;;;;;14.23;100.00;97515.81;4975732;28;20057;-78
2022/08/14 04:21:11;;;;;;;1999.90;999.90;;;;;;;14.29;100.00;97521.94;4975797;28;20135;-78
2022/08/14 04:23:37;;;;;;;1999.90;999.90;;;;;;;14.22;100.00;97496.88;4975335;28;20070;-78
2022/08/14 04:26:06;;;;;;;1999.90;999.90;;;;;;;14.33;100.00;97515.47;4974667;28;20066;-78
2022/08/14 04:28:32;;;;;;;1999.90;999.90;;;;;;;14.24;100.00;97500.09;4975468;28;20022;-78
2022/08/14 04:30:57;;;;;;;1999.90;999.90;;;;;;;14.23;100.00;97509.50;4975901;28;20082;-78
2022/08/14 04:33:23;;;;;;;1999.90;999.90;;;;;;;14.24;100.00;97508.38;4975848;28;20098;-78
2022/08/14 04:35:50;;;;;;;1999.90;999.90;;;;;;;14.20;100.00;97516.47;4976536;28;20090;-78
2022/08/14 04:43:43;;;;;;;1999.90;999.90;;;;;;;14.56;100.00;97517.97;4976178;28;20089;-78
2022/08/14 04:46:12;;;;;;;1999.90;999.90;;;;;;;14.68;100.00;97515.31;4974735;28;20035;-77
2022/08/14 04:48:38;;;;;;;1999.90;999.90;;;;;;;14.73;100.00;97513.16;4976325;28;20106;-79
2022/08/14 04:51:06;;;;;;;1999.90;999.90;;;;;;;14.73;100.00;97515.91;4998186;28;20504;-78
2022/08/14 04:53:33;;;;;;;1999.90;999.90;;;;;;;14.64;100.00;97504.16;4992416;28;20619;-78
2022/08/14 04:55:59;;;;;;;1999.90;999.90;;;;;;;14.79;100.00;97514.56;4976517;28;20081;-78
2022/08/14 04:58:29;;;;;;;1999.90;999.90;;;;;;;14.86;100.00;97522.31;4977841;28;20377;-78
2022/08/14 05:00:57;;;;;;;1999.90;999.90;;;;;;;14.79;100.00;97522.84;4977583;28;21098;-78
2022/08/14 05:03:30;;;;;;;1999.90;999.90;;;;;;;14.73;100.00;97510.41;4978604;28;20030;-78
2022/08/14 05:06:00;;;;;;;1999.90;999.90;;;;;;;14.84;100.00;97519.09;4978006;28;20023;-78
2022/08/14 05:08:26;;;;;;;1999.90;999.90;;;;;;;14.85;100.00;97516.00;4978090;28;20102;-77
2022/08/14 05:10:54;;;;;;;1999.90;999.90;;;;;;;14.80;100.00;97516.19;4978597;28;20031;-78
2022/08/14 05:13:22;;;;;;;1999.90;999.90;;;;;;;14.60;100.00;97503.19;4978765;28;20057;-78
2022/08/14 05:15:48;;;;;;;1999.90;999.90;;;;;;;14.38;100.00;97507.03;4980130;28;20034;-78
2022/08/14 05:18:16;;;;;;;1999.90;999.90;;;;;;;14.29;100.00;97499.91;4982403;28;20057;-78
2022/08/14 05:20:45;;;;;;;1999.90;999.90;;;;;;;14.40;100.00;97503.97;4998517;28;20034;-78
2022/08/14 05:23:12;;;;;;;1999.90;999.90;;;;;;;14.54;100.00;97499.00;5005223;28;20033;-78
2022/08/14 05:25:38;;;;;;;1999.90;999.90;;;;;;;14.69;100.00;97503.16;5006783;28;20045;-77
2022/08/14 05:28:17;;;;;;;1999.90;999.90;;;;;;;14.55;100.00;97505.34;4998432;28;20030;-77
2022/08/14 05:31:02;;;;;;;1999.90;999.90;;;;;;;14.48;100.00;97503.09;4995527;28;20026;-77
2022/08/14 05:33:29;;;;;;;1999.90;999.90;;;;;;;14.52;100.00;97503.25;4998907;28;20040;-77
2022/08/14 05:35:59;;;;;;;1999.90;999.90;;;;;;;14.56;100.00;97499.50;4998638;28;20093;-76
2022/08/14 05:38:32;;;;;;;1999.90;999.90;;;;;;;14.55;100.00;97499.81;4997927;28;20057;-76
2022/08/14 05:41:01;;;;;;;1999.90;999.90;;;;;;;14.71;100.00;97504.44;4995649;28;20062;-75
2022/08/14 05:43:27;;;;;;;1999.90;999.90;;;;;;;14.82;100.00;97505.66;4997800;28;20026;-74
2022/08/14 05:45:52;;;;;;;1999.90;999.90;;;;;;;15.02;100.00;97504.88;4995901;28;20037;-76
2022/08/14 05:48:17;;;;;;;1999.90;999.90;;;;;;;14.96;100.00;97495.19;5004893;28;20034;-81
2022/08/14 05:50:43;;;;;;;1999.90;999.90;;;;;;;15.08;100.00;97507.41;5004673;28;20050;-80
2022/08/14 05:53:09;;;;;;;1999.90;999.90;;;;;;;15.21;100.00;97501.66;5004936;28;20037;-79
2022/08/14 05:55:34;;;;;;;1999.90;999.90;;;;;;;15.37;100.00;97504.59;5004068;28;20171;-77
2022/08/14 05:58:03;;;;;;;1999.90;999.90;;;;;;;15.56;100.00;97502.19;5003761;28;20041;-83
2022/08/14 06:00:37;;;;;;;1999.90;999.90;;;;;;;15.83;100.00;97512.63;5009238;28;20030;-80
2022/08/14 06:03:04;;;;;;;1999.90;999.90;;;;;;;16.11;100.00;97515.56;5000661;28;20468;-75
2022/08/14 06:05:30;;;;;;;1999.90;999.90;;;;;;;16.44;100.00;97521.84;4995626;28;20042;-73
2022/08/14 06:07:57;;;;;;;1999.90;999.90;;;;;;;16.47;100.00;97515.63;4998584;28;20057;-76
2022/08/14 06:10:23;;;;;;;1999.90;999.90;;;;;;;16.20;100.00;97509.94;4997317;28;20038;-74
2022/08/14 06:12:49;;;;;;;1999.90;999.90;;;;;;;16.37;100.00;97520.78;4997782;28;20056;-75
2022/08/14 06:15:14;;;;;;;1999.90;999.90;;;;;;;17.20;100.00;97515.56;4997270;28;20546;-74
2022/08/14 06:17:51;;;;;;;1999.90;999.90;;;;;;;17.34;100.00;97515.22;4998033;28;20026;-73
2022/08/14 06:20:18;;;;;;;1999.90;999.90;;;;;;;17.21;100.00;97506.13;4994335;28;20026;-78
2022/08/14 06:22:44;;;;;;;1999.90;999.90;;;;;;;16.90;100.00;97505.97;4995191;28;20053;-76
2022/08/14 06:25:12;;;;;;;1999.90;999.90;;;;;;;16.81;100.00;97497.00;4993528;28;20510;-77
2022/08/14 06:27:45;;;;;;;1999.90;999.90;;;;;;;16.87;100.00;97496.41;4993683;28;20031;-75
2022/08/14 06:30:16;;;;;;;1999.90;999.90;;;;;;;16.92;100.00;97487.88;4994048;28;20030;-77
2022/08/14 06:32:42;;;;;;;1999.90;999.90;;;;;;;17.09;100.00;97482.09;4994033;28;20085;-77
2022/08/14 06:35:09;;;;;;;1999.90;999.90;;;;;;;17.51;100.00;97496.34;4992984;28;20369;-75
2022/08/14 06:37:44;;;;;;;1999.90;999.90;;;;;;;17.77;100.00;97495.94;4993555;28;20440;-77
2022/08/14 06:40:11;;;;;;;1999.90;999.90;;;;;;;17.69;100.00;97487.81;4992756;28;20034;-77
2022/08/14 06:42:37;;;;;;;1999.90;999.90;;;;;;;18.13;100.00;97489.41;4992766;28;20034;-79
2022/08/14 06:45:04;;;;;;;1999.90;999.90;;;;;;;18.60;100.00;97489.44;4992786;28;20488;-78
2022/08/14 06:47:32;;;;;;;1999.90;999.90;;;;;;;18.41;100.00;97497.63;4992980;28;20073;-74
2022/08/14 06:49:58;;;;;;;1999.90;999.90;;;;;;;18.67;100.00;97514.53;4992537;28;20030;-74
2022/08/14 06:52:23;;;;;;;1999.90;999.90;;;;;;;17.90;100.00;97505.78;4992781;28;20052;-73
2022/08/14 06:54:49;;;;;;;1999.90;999.90;;;;;;;17.63;100.00;97501.09;4992338;28;20080;-76
2022/08/14 06:57:14;;;;;;;1999.90;999.90;;;;;;;17.65;100.00;97501.53;4992226;28;20034;-73
2022/08/14 06:59:39;;;;;;;1999.90;999.90;;;;;;;17.81;100.00;97504.34;4992258;28;20030;-73
2022/08/14 07:07:40;;;;;;;1999.90;999.90;;;;;;;17.51;100.00;97501.09;4991996;28;20394;-72
2022/08/14 07:10:07;;;;;;;1999.90;999.90;;;;;;;17.84;100.00;97504.44;4993763;28;20036;-76
2022/08/14 07:12:32;;;;;;;1999.90;999.90;;;;;;;18.22;100.00;97503.06;4994607;28;20041;-75
2022/08/14 07:14:57;;;;;;;1999.90;999.90;;;;;;;18.03;100.00;97493.50;4985402;28;20026;-76
2022/08/14 07:17:23;;;;;;;1999.90;999.90;;;;;;;18.00;100.00;97493.41;4981279;28;20030;-73
2022/08/14 07:19:48;;;;;;;1999.90;999.90;;;;;;;18.08;100.00;97497.94;4978560;28;20403;-76
2022/08/14 07:22:13;;;;;;;1999.90;999.90;;;;;;;18.50;100.00;97495.50;4978684;28;20106;-79
2022/08/14 07:24:39;;;;;;;1999.90;999.90;;;;;;;18.50;100.00;97503.81;4988579;28;20065;-74
2022/08/14 07:27:04;;;;;;;1999.90;999.90;;;;;;;18.86;100.00;97506.28;4988735;28;20531;-75
2022/08/14 07:29:30;;;;;;;1999.90;999.90;;;;;;;18.87;100.00;97510.66;4982249;28;20023;-74
2022/08/14 07:31:55;;;;;;;1999.90;999.90;;;;;;;19.01;100.00;97505.47;4981498;28;20125;-74
2022/08/14 07:34:21;;;;;;;1999.90;999.90;;;;;;;19.23;100.00;97513.06;4982066;28;20046;-73
2022/08/14 07:36:47;;;;;;;1999.90;999.90;;;;;;;19.77;100.00;97509.50;4983517;28;20526;-71
2022/08/14 07:39:12;;;;;;;1999.90;999.90;;;;;;;20.54;100.00;97512.16;4980186;28;20033;-75
2022/08/14 07:41:38;;;;;;;1999.90;999.90;;;;;;;20.41;100.00;97517.09;4987093;28;20026;-70
2022/08/14 07:44:04;;;;;;;1999.90;999.90;;;;;;;19.93;100.00;97513.00;5000060;28;20117;-72
2022/08/14 07:46:29;;;;;;;1999.90;999.90;;;;;;;19.99;100.00;97516.25;5009844;28;20130;-72
2022/08/14 07:48:56;;;;;;;1999.90;999.90;;;;;;;20.44;100.00;97513.56;5009916;28;20080;-72
2022/08/14 07:51:21;;;;;;;1999.90;999.90;;;;;;;21.27;94.42;97512.53;5008967;28;20451;-72
2022/08/14 07:53:47;;;;;;;1999.90;999.90;;;;;;;22.42;87.26;97514.34;5009888;28;20072;-72
2022/08/14 07:56:12;;;;;;;1999.90;999.90;;;;;;;23.96;77.98;97524.19;5005769;28;20022;-73
2022/08/14 07:58:37;;;;;;;1999.90;999.90;;;;;;;24.59;73.22;97516.41;5009941;28;20121;-73
2022/08/14 08:01:05;;;;;;;1999.90;999.90;;;;;;;23.33;78.36;97507.91;5010348;28;20014;-71
2022/08/14 08:03:33;;;;;;;1999.90;999.90;;;;;;;23.03;80.96;97506.50;5009420;28;20542;-71
2022/08/14 08:06:00;;;;;;;1999.90;999.90;;;;;;;23.94;78.09;97506.22;5004315;28;20030;-71
2022/08/14 08:08:28;;;;;;;1999.90;999.90;;;;;;;23.68;78.28;97521.28;4990117;28;20034;-72
2022/08/14 08:10:56;;;;;;;1999.90;999.90;;;;;;;23.38;78.61;97518.72;4999401;28;20040;-72
2022/08/14 08:13:21;;;;;;;1999.90;999.90;;;;;;;23.80;78.11;97520.97;5007431;28;20038;-72
2022/08/14 08:15:55;;;;;;;1999.90;999.90;;;;;;;23.78;77.15;97516.94;5009753;28;20026;-73
2022/08/14 08:18:21;;;;;;;1999.90;999.90;;;;;;;24.64;74.06;97507.59;5005323;28;20030;-72
2022/08/14 08:20:49;;;;;;;1999.90;999.90;;;;;;;24.05;74.41;97515.47;4970606;28;20069;-71
2022/08/14 08:23:16;;;;;;;1999.90;999.90;;;;;;;23.34;78.43;97514.28;4970645;28;20110;-76
2022/08/14 08:25:43;;;;;;;1999.90;999.90;;;;;;;23.04;80.97;97514.50;4970849;28;20038;-74
2022/08/14 08:28:10;;;;;;;1999.90;999.90;;;;;;;23.20;79.32;97503.84;4978255;28;20089;-76
2022/08/14 08:30:37;;;;;;;1999.90;999.90;;;;;;;23.32;79.20;97509.09;4974755;28;20424;-74
2022/08/14 08:33:04;;;;;;;1999.90;999.90;;;;;;;23.44;76.92;97503.22;4978147;28;20026;-73
2022/08/14 08:35:34;;;;;;;1999.90;999.90;;;;;;;23.50;76.18;97502.81;4990178;28;20026;-73
2022/08/14 08:38:11;;;;;;;1999.90;999.90;;;;;;;23.51;75.75;97502.44;4989105;28;20054;-75
2022/08/14 08:40:39;;;;;;;1999.90;999.90;;;;;;;23.99;73.51;97498.25;4989621;28;20113;-74
2022/08/14 08:43:07;;;;;;;1999.90;999.90;;;;;;;23.72;70.53;97496.16;4989408;28;20053;-70
2022/08/14 08:45:34;;;;;;;1999.90;999.90;;;;;;;24.04;72.47;97493.47;4990174;28;20057;-72
2022/08/14 08:48:01;;;;;;;1999.90;999.90;;;;;;;24.21;71.39;97490.78;4990104;28;20058;-72
2022/08/14 08:50:30;;;;;;;1999.90;999.90;;;;;;;24.46;69.16;97496.41;4994423;28;20109;-77
2022/08/14 08:52:59;;;;;;;1999.90;999.90;;;;;;;24.09;70.38;97488.28;4995910;28;20042;-75
2022/08/14 08:55:34;;;;;;;1999.90;999.90;;;;;;;24.57;68.06;97486.00;4994858;28;20034;-76
2022/08/14 08:58:03;;;;;;;1999.90;999.90;;;;;;;24.63;64.29;97484.41;4993459;28;20395;-73
2022/08/14 09:00:32;;;;;;;1999.90;999.90;;;;;;;24.43;61.74;97481.19;4989962;28;20085;-74
2022/08/14 09:03:06;;;;;;;1999.90;999.90;;;;;;;24.81;58.72;97476.84;4974053;28;20019;-75
2022/08/14 09:05:34;;;;;;;1999.90;999.90;;;;;;;25.13;58.03;97478.81;4977653;28;20034;-74
2022/08/14 09:08:26;;;;;;;1999.90;999.90;;;;;;;25.58;56.64;97477.13;4984364;28;20018;-75
2022/08/14 09:10:53;;;;;;;1999.90;999.90;;;;;;;25.96;55.67;97476.16;4983901;28;20372;-75
2022/08/14 09:13:24;;;;;;;1999.90;999.90;;;;;;;26.24;55.52;97476.03;4980519;28;20049;-76
2022/08/14 09:15:50;;;;;;;1999.90;999.90;;;;;;;25.69;56.63;97477.88;4981043;28;20045;-75
2022/08/14 09:18:18;;;;;;;1999.90;999.90;;;;;;;25.69;56.16;97472.28;4985308;28;20037;-71
2022/08/14 09:20:46;;;;;;;1999.90;999.90;;;;;;;25.53;55.41;97470.72;4976904;28;20023;-76
2022/08/14 09:23:13;;;;;;;1999.90;999.90;;;;;;;25.40;55.96;97463.97;4982776;28;20476;-75
2022/08/14 09:25:40;;;;;;;1999.90;999.90;;;;;;;25.79;55.55;97463.81;4990743;28;20022;-73
2022/08/14 09:28:07;;;;;;;1999.90;999.90;;;;;;;25.77;54.75;97468.25;4985479;28;20022;-76
2022/08/14 09:30:35;;;;;;;1999.90;999.90;;;;;;;25.97;54.36;97460.94;4982224;28;20058;-75
2022/08/14 09:33:00;;;;;;;1999.90;999.90;;;;;;;25.89;53.84;97471.41;4982684;28;20034;-73
2022/08/14 09:35:48;;;;;;;1999.90;999.90;;;;;;;26.26;53.59;97468.00;4982529;28;20030;-75
2022/08/14 09:38:44;;;;;;;1999.90;999.90;;;;;;;26.57;53.03;97460.56;4993164;28;20077;-78
2022/08/14 09:41:31;;;;;;;1999.90;999.90;;;;;;;26.41;53.20;97449.88;4991666;28;20029;-82
2022/08/14 09:44:02;;;;;;;1999.90;999.90;;;;;;;26.21;53.24;97450.81;4994478;28;20041;-82
2022/08/14 09:46:27;;;;;;;1999.90;999.90;;;;;;;26.36;55.40;97444.69;4991969;28;20031;-79
2022/08/14 09:49:04;;;;;;;1999.90;999.90;;;;;;;26.54;51.67;97445.34;4994943;28;20041;-80
2022/08/14 09:51:31;;;;;;;1999.90;999.90;;;;;;;26.14;55.31;97434.81;4991784;28;20046;-80
2022/08/14 09:54:15;;;;;;;1999.90;999.90;;;;;;;26.03;50.82;97431.28;5005016;28;20034;-79
2022/08/14 09:56:45;;;;;;;1999.90;999.90;;;;;;;26.17;54.89;97436.00;4995736;28;20046;-75
2022/08/14 09:59:13;;;;;;;1999.90;999.90;;;;;;;26.37;51.23;97432.28;4976549;28;20440;-75
2022/08/14 10:01:40;;;;;;;1999.90;999.90;;;;;;;26.82;49.58;97437.94;4989760;28;20109;-75
2022/08/14 10:04:18;;;;;;;1999.90;999.90;;;;;;;27.00;48.24;97438.59;5008452;28;20508;-76
2022/08/14 10:06:44;;;;;;;1999.90;999.90;;;;;;;27.01;48.67;97429.72;4993459;28;20092;-75
2022/08/14 10:09:10;;;;;;;1999.90;999.90;;;;;;;27.12;44.57;97426.81;4983651;28;20011;-75
2022/08/14 10:11:37;;;;;;;1999.90;999.90;;;;;;;26.36;54.79;97427.06;4986957;28;20023;-76
2022/08/14 10:14:23;;;;;;;1999.90;999.90;;;;;;;26.59;45.90;97435.72;4989137;28;20014;-76
2022/08/14 10:16:53;;;;;;;1999.90;999.90;;;;;;;27.06;46.50;97428.50;5011888;28;20483;-76
2022/08/14 10:19:19;;;;;;;1999.90;999.90;;;;;;;27.19;46.03;97420.34;4998045;28;20105;-77
2022/08/14 10:22:09;;;;;;;1999.90;999.90;;;;;;;26.72;44.23;97416.34;5000003;28;20069;-76
2022/08/14 10:24:45;;;;;;;1999.90;999.90;;;;;;;26.95;45.00;97419.34;4989171;28;20116;-81
2022/08/14 10:27:22;;;;;;;1999.90;999.90;;;;;;;27.12;43.54;97415.59;5003146;28;20038;-74
2022/08/14 10:30:02;;;;;;;1999.90;999.90;;;;;;;27.47;44.24;97415.19;4983500;28;20448;-76
2022/08/14 10:32:28;;;;;;;1999.90;999.90;;;;;;;27.50;42.69;97403.09;4984618;28;20022;-75
2022/08/14 10:35:08;;;;;;;1999.90;999.90;;;;;;;27.37;42.82;97404.06;4982748;28;20363;-72
2022/08/14 10:37:48;;;;;;;1999.90;999.90;;;;;;;27.27;42.49;97402.16;4986512;28;20555;-74
2022/08/14 10:40:25;;;;;;;1999.90;999.90;;;;;;;27.50;44.42;97400.28;4980679;28;20038;-73
2022/08/14 10:42:51;;;;;;;1999.90;999.90;;;;;;;27.05;43.86;97401.59;4987025;28;20030;-73
2022/08/14 10:45:23;;;;;;;1999.90;999.90;;;;;;;27.31;41.59;97406.53;4987697;28;20030;-73
2022/08/14 10:47:49;;;;;;;1999.90;999.90;;;;;;;27.54;42.73;97401.06;4988266;28;20042;-73
2022/08/14 10:50:15;;;;;;;1999.90;999.90;;;;;;;27.39;39.38;97405.22;4987377;28;20036;-73
2022/08/14 10:52:42;;;;;;;1999.90;999.90;;;;;;;27.37;41.53;97395.63;4988378;28;20189;-74
2022/08/14 10:55:13;;;;;;;1999.90;999.90;;;;;;;27.33;41.87;97395.66;4987251;28;20037;-73
2022/08/14 10:58:09;;;;;;;1999.90;999.90;;;;;;;27.29;40.64;97389.28;4988003;28;20034;-74
2022/08/14 11:00:36;;;;;;;1999.90;999.90;;;;;;;27.53;40.71;97387.44;4984655;28;20069;-73
2022/08/14 11:03:08;;;;;;;1999.90;999.90;;;;;;;27.74;40.06;97369.47;4992043;28;20541;-73
2022/08/14 11:05:48;;;;;;;1999.90;999.90;;;;;;;27.67;39.08;97361.94;4987681;28;20146;-73
2022/08/14 11:08:15;;;;;;;1999.90;999.90;;;;;;;27.87;40.81;97362.88;4987566;28;20034;-73
2022/08/14 11:10:45;;;;;;;1999.90;999.90;;;;;;;27.71;38.54;97359.06;4987161;28;20053;-73